Πλησιέστερες Αναφορές METAR

 

LGTS - Thessaloniki/Makedonia-Elev 7m
Distance from station: Ν 13km
Ενημερώθηκε: 19/09/2019 14:20
Few Clouds
Few Clouds
 Ανεμος από Δ
Ανεμος: Δ 11 km/h
Θερμοκρασία: 27°C
Heat Index: 27°C
Σημείο Δρόσου: 14°C
Υγρασία: 45%
Βαρόμετρο: 1017 hPa
Clouds: Few Clouds
Visibility: 10 km
Cloud details: Few Clouds 914 m
2019/09/19 11:20 LGTS 191120Z 28006KT 9999 FEW030TCU 27/14 Q1017 NOSIG
LGAV - Athens/Elef. Venizelos-Elev 94m
Distance from station: ΝΝΑ 312km
Ενημερώθηκε: 19/09/2019 14:20
Few Clouds
Few Clouds
 Ανεμος από ΒΑ
Ανεμος: ΒΑ 19 km/h
Θερμοκρασία: 28°C
Heat Index: 28°C
Σημείο Δρόσου: 15°C
Υγρασία: 45%
Βαρόμετρο: 1016 hPa
Clouds: Few Clouds
Visibility: 10 km
Cloud details: Few Clouds 610 m
2019/09/19 11:20 LGAV 191120Z 05010KT 9999 FEW020 28/15 Q1016 NOSIG
 
LGAL - Alexandroupolis-Elev 3m
Distance from station: Α 251km
Ενημερώθηκε: 19/09/2019 14:20
Few Clouds
Few Clouds
 Ανεμος από ΒΑ
Ανεμος: ΒΑ 28 km/h
Θερμοκρασία: 27°C
Heat Index: 27°C
Σημείο Δρόσου: 14°C
Υγρασία: 45%
Βαρόμετρο: 1016 hPa
Clouds: Few Clouds
Visibility: 10 km
Cloud details: Few Clouds 762 m
2019/09/19 11:20 LGAL 191120Z 05015KT 9999 FEW025 27/14 Q1016
LGKV - Kavala/Crysoupolis-Elev 5m
Distance from station: ΑΒΑ 144km
Ενημερώθηκε: 19/09/2019 14:20
Few Clouds
Few Clouds
 Ανεμος από ΝΝΑ
Ανεμος: ΝΝΑ 20 km/h
Θερμοκρασία: 27°C
Heat Index: 27°C
Σημείο Δρόσου: 14°C
Υγρασία: 45%
Βαρόμετρο: 1016 hPa
Clouds: Few Clouds
Visibility: 10 km
Cloud details: Few Clouds 914 m
2019/09/19 11:20 LGKV 191120Z 16011KT 9999 FEW030 27/14 Q1016
 
LGSK - Skiathos Island-Elev 15m
Distance from station: ΝΝΑ 168km
Ενημερώθηκε: 19/09/2019 13:50
Few Clouds
Few Clouds
 Ανεμος από ΒΑ
Ανεμος: ΒΑ 15 km/h
Θερμοκρασία: 26°C
Σημείο Δρόσου: 19°C
Υγρασία: 65%
Βαρόμετρο: 1016 hPa
Clouds: Few Clouds
Visibility: 10 km
Cloud details: Few Clouds 610 m
2019/09/19 10:50 LGSK 191050Z 04008KT 9999 FEW020 26/19 Q1016
LGLM - Limnos Island-Elev 5m
Distance from station: ΑΝΑ 210km
Ενημερώθηκε: 19/09/2019 14:20
Few Clouds
Few Clouds
 Ανεμος από ΒΑ
Ανεμος: ΒΑ 28 km/h
Θερμοκρασία: 26°C
Σημείο Δρόσου: 18°C
Υγρασία: 61%
Βαρόμετρο: 1015 hPa
Clouds: Few Clouds
Visibility: 10 km
Cloud details: Few Clouds 549 m
2019/09/19 11:20 LGLM 191120Z 04015KT 9999 FEW018 26/18 Q1015
 
LGMT - Mitilini Island-Elev 17m
Distance from station: ΑΝΑ 358km
Ενημερώθηκε: 19/09/2019 14:20
Αίθριος
Αίθριος
 Ανεμος από ΒΒΔ
Ανεμος: ΒΒΔ 9 km/h
Θερμοκρασία: 25°C
Σημείο Δρόσου: 16°C
Υγρασία: 57%
Βαρόμετρο: 1015 hPa
Συνθήκες: Αίθριος
Visibility: greater than 10 km
2019/09/19 11:20 LGMT 191120Z 34005KT CAVOK 25/16 Q1015
LGSY - Skiros Island-Elev 15m
Distance from station: ΝΑ 227km
Ενημερώθηκε: 19/09/2019 14:20
Μερικώς νεφελώδης
Μερικώς νεφελώδης
 Ανεμος από ΒΒΑ
Ανεμος: ΒΒΑ 13 km/h
Θερμοκρασία: 25°C
Σημείο Δρόσου: 19°C
Υγρασία: 69%
Βαρόμετρο: 1016 hPa
Clouds: Μερικώς νεφελώδης
Visibility: 10 km
Cloud details: Μερικώς νεφελώδης 610 m
2019/09/19 11:20 LGSY 191120Z 02007KT 9999 SCT020 25/19 Q1016
 
LGKZ - Kozani-Elev 628m
Distance from station: ΔΝΔ 102km
Ενημερώθηκε: 19/09/2019 13:50
Few Clouds
Few Clouds
 Ανεμος από ΑΝΑ
Ανεμος: ΑΝΑ 9 km/h
Θερμοκρασία: 27°C
Σημείο Δρόσου: 7°C
Υγρασία: 28%
Βαρόμετρο: 1018 hPa
Clouds: Few Clouds
Visibility: 10 km
Cloud details: Few Clouds 2134 m
2019/09/19 10:50 LGKZ 191050Z 12005KT 9999 FEW070 27/07 Q1018
LGIO - Ioannina-Elev 476m
Distance from station: ΔΝΔ 209km
Ενημερώθηκε: 19/09/2019 14:20
Μερικώς νεφελώδης
Μερικώς νεφελώδης
 Ανεμος από varies
Ανεμος: varies 4 km/h
Θερμοκρασία: 27°C
Heat Index: 27°C
Σημείο Δρόσου: 15°C
Υγρασία: 48%
Βαρόμετρο: 1016 hPa
Clouds: Μερικώς νεφελώδης
Visibility: 10 km
Cloud details: Μερικώς νεφελώδης 1067 m
2019/09/19 11:20 LGIO 191120Z VRB02KT 9999 SCT035 27/15 Q1016
 
LGZA - Zakinthos-Elev 3m
Distance from station: ΝΝΔ 367km
Ενημερώθηκε: 19/09/2019 14:20
Μερικώς νεφελώδης
Μερικώς νεφελώδης
 Ανεμος από ΒΒΑ
Ανεμος: ΒΒΑ 9 km/h
Θερμοκρασία: 28°C
Heat Index: 29°C
Σημείο Δρόσου: 20°C
Υγρασία: 62%
Βαρόμετρο: 1015 hPa
Clouds: Μερικώς νεφελώδης
Visibility: 10 km
Cloud details: Μερικώς νεφελώδης 549 m
2019/09/19 11:20 LGZA 191120Z 03005KT 9999 SCT018 28/20 Q1015
LGKR - Corfu Island-Elev 2m
Distance from station: ΔΝΔ 282km
Ενημερώθηκε: 19/09/2019 14:20
Μερικώς νεφελώδης
Μερικώς νεφελώδης
 Ανεμος από ΝΝΑ
Ανεμος: ΝΝΑ 15 km/h
Θερμοκρασία: 28°C
Heat Index: 30°C
Σημείο Δρόσου: 22°C
Υγρασία: 70%
Βαρόμετρο: 1015 hPa
Clouds: Μερικώς νεφελώδης
Visibility: 10 km
Cloud details: Μερικώς νεφελώδης 549 m
Μερικώς νεφελώδης 914 m
2019/09/19 11:20 LGKR 191120Z 15008KT 9999 SCT018 SCT030 28/22 Q1015 NOSIG
 
LGSO - Syros Island-Elev 72m
Distance from station: ΝΝΑ 397km
Ενημερώθηκε: 19/09/2019 14:20

 Ανεμος από ΑΝΑ
Ανεμος: ΑΝΑ 11 km/h
Θερμοκρασία: 25°C
Σημείο Δρόσου: 19°C
Υγρασία: 69%
Βαρόμετρο: 1015 hPa
2019/09/19 11:20 LGSO 191120Z AUTO 11006KT 060V120 //// // ////// 25/19 Q1015 RE//
LGMK - Mikonos Island-Elev 123m
Distance from station: ΝΝΑ 412km
Ενημερώθηκε: 19/09/2019 14:20
Few Clouds
Few Clouds
 Ανεμος από ΒΒΑ
Ανεμος: ΒΒΑ 19 km/h
Θερμοκρασία: 27°C
Heat Index: 28°C
Σημείο Δρόσου: 19°C
Υγρασία: 62%
Βαρόμετρο: 1015 hPa
Clouds: Few Clouds
Visibility: 10 km
Cloud details: Few Clouds 244 m
2019/09/19 11:20 LGMK 191120Z 02010KT 9999 FEW008 27/19 Q1015
 
LGSR - Santorini Island-Elev 40m
Distance from station: ΝΝΑ 520km
Ενημερώθηκε: 19/09/2019 14:20
Few Clouds
Few Clouds
 Ανεμος από Β
Ανεμος: Β 19 km/h
Θερμοκρασία: 26°C
Σημείο Δρόσου: 21°C
Υγρασία: 74%
Βαρόμετρο: 1014 hPa
Clouds: Few Clouds
Visibility: 10 km
Cloud details: Few Clouds 30 m
2019/09/19 11:20 LGSR 191120Z 01010KT 9999 FEW001 26/21 Q1014
LGKL - Kalamata-Elev 8m
Distance from station: Ν 405km
Ενημερώθηκε: 19/09/2019 14:20
Αίθριος
Αίθριος
 Ανεμος από ΝΝΑ
Ανεμος: ΝΝΑ 9 km/h
Θερμοκρασία: 29°C
Σημείο Δρόσου: 13°C
Υγρασία: 37%
Βαρόμετρο: 1015 hPa
Συνθήκες: Αίθριος
Visibility: greater than 10 km
2019/09/19 11:20 LGKL 191120Z 16005KT CAVOK 29/13 Q1015
 
LGIR - Iraklion/Crete-Elev 5m
Distance from station: ΝΝΑ 622km
Ενημερώθηκε: 19/09/2019 14:20
Few Clouds
Few Clouds
 Ανεμος από Β
Ανεμος: Β 11 km/h
Θερμοκρασία: 27°C
Heat Index: 29°C
Σημείο Δρόσου: 21°C
Υγρασία: 70%
Βαρόμετρο: 1014 hPa
Clouds: Few Clouds
Visibility: 10 km
Cloud details: Few Clouds 762 m
2019/09/19 11:20 LGIR 191120Z 36006KT 9999 FEW025 27/21 Q1014 NOSIG
LGRP - Rhodes-Elev 5m
Distance from station: ΝΑ 649km
Ενημερώθηκε: 19/09/2019 14:20
Αίθριος
Αίθριος
 Ανεμος από Δ
Ανεμος: Δ 15 km/h
Θερμοκρασία: 27°C
Heat Index: 28°C
Σημείο Δρόσου: 18°C
Υγρασία: 58%
Βαρόμετρο: 1013 hPa
Συνθήκες: Αίθριος
Visibility: greater than 10 km
2019/09/19 11:20 LGRP 191120Z 26008KT CAVOK 27/18 Q1013 NOSIG
 
LWOH - Ohrid/FYROM-Elev 761m
Distance from station: ΔΒΔ 188km
Ενημερώθηκε: 19/09/2019 14:30
Μερικώς νεφελώδης
Μερικώς νεφελώδης
 Ανεμος από ΝΝΑ
Ανεμος: ΝΝΑ 7 km/h
Θερμοκρασία: 21°C
Σημείο Δρόσου: 12°C
Υγρασία: 57%
Βαρόμετρο: 1018 hPa
Clouds: Μερικώς νεφελώδης
Visibility: 10 km
Cloud details: Μερικώς νεφελώδης 1219 m
2019/09/19 11:30 LWOH 191130Z 16004KT 9999 SCT040 21/12 Q1018
LBSF - Sofia/Bulgaria-Elev 595m
Distance from station: Β 227km
Ενημερώθηκε: 19/09/2019 14:00
Συννεφιά
Συννεφιά
 Ανεμος από Δ
Ανεμος: Δ 7 km/h
Θερμοκρασία: 11°C
Σημείο Δρόσου: 7°C
Υγρασία: 77%
Βαρόμετρο: 1022 hPa
Clouds: Συννεφιά
Visibility: 10 km
Cloud details: Few Clouds 1402 m
Συννεφιά 1585 m
2019/09/19 11:00 LBSF 191100Z 28004KT 260V330 9999 FEW046 OVC052 11/07 Q1022 NOSIG
Σημερινά ρεκόρ Μετεωρολογικού Σταθμού
Δεν έχει σημειωθεί νέο ρεκόρ μέχρι τις 14:29 σήμερα - 19/9/2019